This is the latest recevied weather packets stored in our database for station/object EA3IBE-10. If no packets are shown the sender has not sent any weather packets the latest 10 day(s).
| Time | Temp. | Humidity | Pressure | Rain* | Wind** | Luminosity | Snow |
|---|---|---|---|---|---|---|---|
| 1777858171 | 15.56° C | 100% | 1011.8 hPa | - | - | - | - |
| 1777855771 | 15° C | 100% | 1012.2 hPa | - | - | - | - |
| 1777853371 | 15° C | 100% | 1012.5 hPa | - | - | - | - |
| 1777850971 | 15.56° C | 100% | 1012.6 hPa | - | - | - | - |
| 1777848571 | 15.56° C | 100% | 1012.7 hPa | - | - | - | - |
| 1777846171 | 15° C | 100% | 1012.8 hPa | - | - | - | - |
| 1777843771 | 15° C | 100% | 1013.1 hPa | - | - | - | - |
| 1777841371 | 15.56° C | 100% | 1013.2 hPa | - | - | - | - |
| 1777838971 | 16.11° C | 100% | 1013.1 hPa | - | - | - | - |
| 1777836571 | 16.11° C | 100% | 1012.8 hPa | - | - | - | - |
| 1777834170 | 16.11° C | 100% | 1012.7 hPa | - | - | - | - |
| 1777831770 | 16.67° C | 100% | 1012.6 hPa | - | - | - | - |
| 1777829370 | 17.78° C | 91% | 1012.4 hPa | - | - | - | - |
| 1777826970 | 17.78° C | 99% | 1012.3 hPa | - | - | - | - |
| 1777824570 | 17.78° C | 100% | 1012.6 hPa | - | - | - | - |
| 1777822170 | 17.78° C | 94% | 1012.4 hPa | - | - | - | - |
| 1777819770 | 20° C | 67% | 1012.4 hPa | - | - | - | - |
| 1777817370 | 23.33° C | 56% | 1013.2 hPa | - | - | - | - |
| 1777814970 | 22.78° C | 56% | 1014 hPa | - | - | - | - |
| 1777812570 | 20.56° C | 57% | 1014.1 hPa | - | - | - | - |
| 1777810169 | 23.33° C | 50% | 1014.2 hPa | - | - | - | - |
| 1777807769 | 21.67° C | 60% | 1014.7 hPa | - | - | - | - |
| 1777805369 | 20.56° C | 67% | 1015.2 hPa | - | - | - | - |
| 1777802982 | 20° C | 72% | 1015.1 hPa | - | - | - | - |
| 1777802969 | 20° C | 72% | 1015.1 hPa | - | - | - | - |
* Rain since midnight (hover to see other rain measurements)
** Current wind speed in m/s (hover to see current wind gust speed)